createdAt,value
2018-09-27T05:14:40.029Z,2.20
2018-09-27T05:19:37.784Z,2.77
2018-09-27T05:24:35.445Z,2.80
2018-09-27T05:29:33.132Z,2.50
2018-09-27T05:34:30.908Z,2.70
2018-09-27T05:39:28.610Z,2.43
2018-09-27T05:44:26.299Z,2.33
2018-09-27T05:49:24.029Z,2.23
2018-09-27T05:54:21.715Z,1.60
2018-09-27T05:59:19.380Z,2.03
2018-09-27T06:04:17.049Z,1.90
2018-09-27T06:09:14.738Z,1.63
2018-09-27T06:14:12.417Z,1.60
2018-09-27T06:19:10.084Z,1.60
2018-09-27T06:24:07.809Z,1.77
2018-09-27T06:29:05.518Z,2.27
2018-09-27T06:34:03.212Z,1.50
2018-09-27T06:39:00.905Z,2.00
2018-09-27T06:43:58.561Z,2.20
2018-09-27T06:48:56.271Z,1.57
2018-09-27T06:53:53.932Z,1.90
2018-09-27T06:58:51.596Z,1.65
2018-09-27T07:03:49.258Z,2.00
2018-09-27T07:08:46.904Z,1.90
2018-09-27T07:13:44.567Z,2.10
2018-09-27T07:18:42.305Z,1.73
2018-09-27T07:23:39.968Z,2.02
2018-09-27T07:28:37.664Z,2.40
2018-09-27T07:33:35.412Z,2.42
2018-09-27T07:38:33.149Z,2.25
2018-09-27T07:43:30.780Z,1.67
2018-09-27T07:48:28.539Z,2.15
2018-09-27T07:53:26.165Z,1.85
2018-09-27T07:58:23.869Z,1.85
2018-09-27T08:03:21.540Z,2.37
2018-09-27T08:08:19.216Z,1.98
2018-09-27T08:13:16.942Z,2.30
2018-09-27T08:18:14.616Z,2.30
2018-09-27T08:23:12.298Z,2.60
2018-09-27T08:28:10.983Z,2.77
2018-09-27T08:33:08.820Z,2.00
2018-09-27T08:38:06.576Z,2.15
2018-09-27T08:43:04.201Z,3.30
2018-09-27T08:48:01.909Z,2.92
2018-09-27T08:52:59.557Z,3.08
2018-09-27T08:57:57.256Z,3.42
2018-09-27T09:02:54.938Z,3.10
2018-09-27T09:07:52.633Z,3.00
2018-09-27T09:12:50.277Z,3.12
2018-09-27T09:17:47.944Z,3.40
2018-09-27T09:22:45.616Z,3.77
2018-09-27T09:27:43.342Z,3.72
2018-09-27T09:32:40.992Z,3.90
2018-09-27T09:37:38.692Z,3.27
2018-09-27T09:42:36.356Z,3.52
2018-09-27T09:47:34.084Z,3.12
2018-09-27T09:52:31.765Z,3.00
2018-09-27T09:57:30.555Z,3.00
2018-09-27T10:02:28.299Z,2.80
2018-09-27T10:07:25.936Z,3.15
2018-09-27T10:12:23.588Z,2.87
2018-09-27T10:17:21.280Z,3.12
2018-09-27T10:22:18.944Z,3.20
2018-09-27T10:27:16.658Z,3.52
2018-09-27T10:32:14.352Z,3.75
2018-09-27T10:37:12.060Z,3.37
2018-09-27T10:42:09.732Z,3.30
2018-09-27T10:47:07.432Z,2.87
2018-09-27T10:52:05.081Z,3.20
2018-09-27T10:57:02.867Z,3.17
2018-09-27T11:02:00.508Z,3.08
2018-09-27T11:06:58.165Z,3.20
2018-09-27T11:11:55.837Z,3.35
2018-09-27T11:16:53.508Z,3.12
2018-09-27T11:21:51.216Z,2.92
2018-09-27T11:26:48.932Z,2.90
2018-09-27T11:31:52.237Z,2.80
2018-09-27T11:36:49.912Z,2.95
2018-09-27T11:41:47.616Z,3.00
2018-09-27T11:46:45.292Z,3.17
2018-09-27T11:51:42.983Z,2.98
2018-09-27T11:56:40.692Z,2.60
2018-09-27T12:01:38.555Z,2.72
2018-09-27T12:06:36.274Z,2.70
2018-09-27T12:11:34.001Z,2.40
2018-09-27T12:16:31.734Z,2.90
2018-09-27T12:21:29.404Z,2.90
2018-09-27T12:26:27.092Z,2.77
2018-09-27T12:31:24.796Z,2.70
2018-09-27T12:36:22.477Z,2.65
2018-09-27T12:41:20.141Z,2.35
2018-09-27T12:46:17.926Z,2.27
2018-09-27T12:51:15.700Z,2.25
2018-09-27T12:56:13.315Z,2.30
2018-09-27T13:01:11.338Z,2.58
2018-09-27T13:06:09.034Z,2.60
2018-09-27T13:11:06.726Z,2.40
2018-09-27T13:16:04.559Z,2.50
2018-09-27T13:21:02.249Z,2.22
2018-09-27T13:25:59.944Z,2.25
2018-09-27T13:30:57.701Z,2.17
2018-09-27T13:35:55.386Z,2.20
2018-09-27T13:40:53.233Z,2.40
2018-09-27T13:45:51.080Z,2.17
2018-09-27T13:50:48.773Z,1.95
2018-09-27T13:55:46.480Z,2.52
2018-09-27T14:00:44.228Z,2.20
2018-09-27T14:05:41.962Z,2.10
2018-09-27T14:10:39.664Z,2.22
2018-09-27T14:15:37.348Z,2.25
2018-09-27T14:20:35.025Z,2.15
2018-09-27T14:25:32.888Z,1.90
2018-09-27T14:30:30.564Z,2.10
2018-09-27T14:35:28.263Z,1.85
2018-09-27T14:40:26.007Z,2.30
2018-09-27T14:45:23.689Z,2.20
2018-09-27T14:50:21.431Z,2.20
2018-09-27T14:55:19.156Z,2.02
2018-09-27T15:00:16.833Z,2.10
2018-09-27T15:05:14.637Z,2.30
2018-09-27T15:10:12.368Z,2.05
2018-09-27T15:15:10.029Z,2.50
2018-09-27T15:20:08.793Z,1.98
2018-09-27T15:25:06.547Z,2.30
2018-09-27T15:30:04.813Z,2.00
2018-09-27T15:35:02.540Z,2.27
2018-09-27T15:40:00.241Z,2.05
2018-09-27T15:44:57.876Z,1.98
2018-09-27T15:49:55.591Z,2.00
2018-09-27T15:54:53.755Z,2.02
2018-09-27T15:59:51.452Z,2.47
2018-09-27T16:04:49.147Z,2.40
2018-09-27T16:09:46.812Z,4.28
2018-09-27T16:14:44.514Z,4.00
2018-09-27T16:19:42.168Z,2.92
2018-09-27T16:24:39.888Z,2.85
2018-09-27T16:29:37.633Z,2.80
2018-09-27T16:34:35.224Z,2.25
2018-09-27T16:39:33.260Z,3.20
2018-09-27T16:44:30.941Z,2.90
2018-09-27T16:49:28.596Z,2.80
2018-09-27T16:54:26.261Z,2.17
2018-09-27T16:59:23.957Z,2.15
2018-09-27T17:04:21.624Z,2.37
2018-09-27T17:09:19.390Z,2.83
2018-09-27T17:14:17.056Z,2.70
2018-09-27T17:19:14.736Z,2.58
2018-09-27T17:24:12.412Z,2.30
2018-09-27T17:29:10.190Z,2.52
2018-09-27T17:34:08.086Z,2.50
2018-09-27T17:39:06.783Z,2.72
2018-09-27T17:44:04.474Z,3.35
